createdAt,value
2023-03-30T00:01:44.673Z,2.80
2023-03-30T00:04:11.754Z,3.13
2023-03-30T00:06:38.825Z,2.57
2023-03-30T00:09:05.762Z,2.93
2023-03-30T00:11:33.396Z,2.80
2023-03-30T00:14:00.044Z,2.60
2023-03-30T00:16:26.618Z,2.13
2023-03-30T00:18:52.939Z,2.87
2023-03-30T00:21:20.114Z,2.87
2023-03-30T00:23:47.073Z,2.40
2023-03-30T00:26:13.854Z,2.40
2023-03-30T00:28:40.194Z,2.73
2023-03-30T00:31:06.650Z,2.20
2023-03-30T00:33:44.764Z,2.50
2023-03-30T00:36:12.564Z,2.37
2023-03-30T00:38:39.851Z,2.50
2023-03-30T00:41:06.607Z,2.60
2023-03-30T00:43:32.953Z,2.50
2023-03-30T00:45:59.180Z,2.43
2023-03-30T00:48:28.163Z,2.50
2023-03-30T00:50:56.728Z,2.40
2023-03-30T00:53:25.146Z,2.27
2023-03-30T00:55:53.053Z,2.10
2023-03-30T00:58:21.567Z,2.40
2023-03-30T01:00:47.963Z,2.43
2023-03-30T01:03:17.337Z,2.40
2023-03-30T01:05:44.746Z,2.50
2023-03-30T01:08:13.268Z,2.17
2023-03-30T01:10:39.694Z,2.47
2023-03-30T01:13:06.745Z,2.30
2023-03-30T01:15:36.133Z,2.13
2023-03-30T01:18:10.468Z,2.40
2023-03-30T01:21:00.983Z,2.23
2023-03-30T01:23:52.602Z,2.20
2023-03-30T01:26:46.229Z,2.50
2023-03-30T01:29:45.665Z,2.17
2023-03-30T01:32:53.575Z,2.87
2023-03-30T01:35:53.652Z,2.63
2023-03-30T01:38:46.855Z,2.47
2023-03-30T01:41:15.057Z,2.07
2023-03-30T01:43:47.656Z,2.47
2023-03-30T01:46:24.405Z,1.97
2023-03-30T01:48:59.242Z,2.20
2023-03-30T01:51:28.942Z,2.30
2023-03-30T01:53:59.313Z,2.40
2023-03-30T01:56:27.838Z,2.17
2023-03-30T01:58:57.706Z,2.40
2023-03-30T02:01:25.990Z,2.40
2023-03-30T02:03:56.434Z,2.30
2023-03-30T02:06:26.727Z,2.40
2023-03-30T02:08:54.316Z,1.90
2023-03-30T02:11:22.397Z,2.30
2023-03-30T02:13:50.312Z,2.13
2023-03-30T02:16:21.885Z,2.10
2023-03-30T02:18:48.089Z,2.10
2023-03-30T02:21:14.830Z,1.90
2023-03-30T02:23:45.485Z,2.07
2023-03-30T02:26:12.230Z,1.90
2023-03-30T02:28:38.801Z,1.83
2023-03-30T02:31:09.932Z,1.77
2023-03-30T02:33:43.175Z,1.93
2023-03-30T02:36:27.621Z,2.10
2023-03-30T02:39:01.665Z,2.17
2023-03-30T02:41:43.052Z,1.73
2023-03-30T02:44:16.402Z,2.20
2023-03-30T02:46:59.726Z,2.00
2023-03-30T02:49:35.121Z,2.03
2023-03-30T02:52:07.917Z,1.93
2023-03-30T02:54:41.868Z,1.90
2023-03-30T02:57:11.260Z,1.70
2023-03-30T02:59:41.762Z,1.83
2023-03-30T03:02:13.164Z,2.20
2023-03-30T03:04:42.696Z,2.20
2023-03-30T03:07:10.110Z,2.10
2023-03-30T03:09:36.569Z,2.03
2023-03-30T03:12:02.833Z,1.90
2023-03-30T03:14:29.930Z,2.23
2023-03-30T03:16:56.144Z,2.10
2023-03-30T03:19:23.193Z,1.90
2023-03-30T03:21:49.462Z,2.20
2023-03-30T03:24:16.696Z,1.90
2023-03-30T03:26:43.339Z,2.00
2023-03-30T03:29:09.592Z,2.10
2023-03-30T03:31:36.194Z,2.30
2023-03-30T03:34:02.694Z,2.23
2023-03-30T03:36:30.073Z,2.50
2023-03-30T03:38:56.342Z,2.27
2023-03-30T03:41:22.517Z,2.73
2023-03-30T03:43:48.723Z,2.13
2023-03-30T03:46:15.650Z,2.40
2023-03-30T03:48:41.897Z,2.10
2023-03-30T03:51:09.107Z,2.37
2023-03-30T03:53:36.099Z,2.90
2023-03-30T03:56:02.792Z,2.07
2023-03-30T03:58:29.876Z,2.17
2023-03-30T04:00:59.630Z,2.70
2023-03-30T04:03:26.323Z,2.00
2023-03-30T04:05:52.547Z,2.20
2023-03-30T04:08:18.763Z,2.40
2023-03-30T04:10:45.580Z,2.40
2023-03-30T04:13:12.170Z,2.23
2023-03-30T04:15:38.465Z,2.50
2023-03-30T04:18:05.234Z,2.80
2023-03-30T04:20:32.396Z,2.63
2023-03-30T04:23:01.123Z,2.57
2023-03-30T04:25:28.146Z,2.30
2023-03-30T04:27:55.242Z,2.23
2023-03-30T04:30:22.148Z,2.37
2023-03-30T04:33:01.679Z,2.10
2023-03-30T04:35:29.752Z,2.03
2023-03-30T04:37:57.356Z,2.60
2023-03-30T04:40:23.676Z,1.90
2023-03-30T04:42:49.903Z,2.13
2023-03-30T04:45:17.688Z,2.10
2023-03-30T04:47:44.411Z,2.30
2023-03-30T04:50:10.661Z,3.07
2023-03-30T04:52:36.875Z,1.90
2023-03-30T04:55:03.416Z,2.30
2023-03-30T04:57:30.209Z,2.70
2023-03-30T04:59:56.490Z,2.13
2023-03-30T05:02:23.437Z,2.13
2023-03-30T05:04:49.841Z,2.10
2023-03-30T05:07:15.984Z,2.37
2023-03-30T05:09:42.171Z,1.93
2023-03-30T05:12:08.468Z,2.07
2023-03-30T05:14:34.696Z,2.13
2023-03-30T05:17:01.037Z,1.83
2023-03-30T05:19:28.685Z,2.10
2023-03-30T05:21:54.859Z,2.00
2023-03-30T05:24:20.988Z,2.13
2023-03-30T05:26:47.171Z,2.13
2023-03-30T05:29:13.364Z,2.03
2023-03-30T05:31:41.148Z,1.80
2023-03-30T05:34:07.441Z,2.13
2023-03-30T05:36:34.840Z,1.90
2023-03-30T05:39:04.213Z,2.00
2023-03-30T05:41:30.938Z,1.77
2023-03-30T05:43:57.142Z,1.80
2023-03-30T05:46:23.458Z,1.60
2023-03-30T05:48:49.690Z,1.80
2023-03-30T05:51:15.919Z,2.00
2023-03-30T05:53:44.330Z,1.80
2023-03-30T05:56:10.838Z,1.90
2023-03-30T05:58:37.664Z,1.93
2023-03-30T06:01:04.974Z,1.80
2023-03-30T06:03:31.562Z,1.70
2023-03-30T06:05:58.437Z,1.70
2023-03-30T06:08:26.228Z,2.37
2023-03-30T06:10:53.474Z,2.13
2023-03-30T06:13:19.849Z,3.07
2023-03-30T06:15:50.685Z,2.20
2023-03-30T06:18:17.075Z,2.03
2023-03-30T06:20:46.646Z,1.90
2023-03-30T06:23:12.879Z,1.87
2023-03-30T06:25:39.011Z,2.00
2023-03-30T06:28:05.963Z,1.80
2023-03-30T06:30:32.158Z,1.87
2023-03-30T06:32:58.639Z,2.20
2023-03-30T06:35:24.962Z,1.97
2023-03-30T06:37:51.150Z,2.33
2023-03-30T06:40:18.296Z,2.27
2023-03-30T06:42:44.603Z,2.10
2023-03-30T06:45:12.053Z,2.10
2023-03-30T06:47:38.680Z,2.30
2023-03-30T06:50:05.852Z,1.77
2023-03-30T06:52:34.478Z,2.40
2023-03-30T06:55:00.600Z,1.90
2023-03-30T06:57:26.962Z,2.10
2023-03-30T06:59:53.246Z,2.47
2023-03-30T07:02:20.241Z,2.43
2023-03-30T07:04:46.531Z,2.00
2023-03-30T07:07:13.208Z,2.17
2023-03-30T07:09:39.551Z,2.53
2023-03-30T07:12:06.260Z,2.40
2023-03-30T07:14:32.398Z,2.63
2023-03-30T07:16:58.770Z,2.60
2023-03-30T07:19:25.688Z,2.10
2023-03-30T07:21:52.005Z,2.00
2023-03-30T07:24:18.292Z,2.37
2023-03-30T07:26:44.755Z,2.00
2023-03-30T07:29:10.973Z,2.27
2023-03-30T07:31:37.467Z,2.00
2023-03-30T07:34:03.750Z,2.10
2023-03-30T07:36:32.082Z,1.87
2023-03-30T07:38:58.976Z,1.57
2023-03-30T07:41:25.246Z,2.17
2023-03-30T07:43:51.488Z,1.77
2023-03-30T07:46:17.834Z,1.67
2023-03-30T07:48:44.057Z,2.00
2023-03-30T07:51:11.612Z,1.90
2023-03-30T07:53:38.864Z,2.20
2023-03-30T07:56:05.991Z,1.97
2023-03-30T07:58:32.306Z,2.20
2023-03-30T08:01:01.933Z,2.17
2023-03-30T08:03:28.473Z,2.50
2023-03-30T08:05:55.832Z,1.83
2023-03-30T08:08:22.583Z,1.87
2023-03-30T08:10:50.091Z,1.93
2023-03-30T08:13:16.395Z,1.73
2023-03-30T08:15:42.637Z,1.50
2023-03-30T08:18:09.215Z,1.83
2023-03-30T08:20:36.750Z,1.90
2023-03-30T08:23:03.156Z,2.10
2023-03-30T08:25:29.902Z,2.47
2023-03-30T08:27:56.692Z,2.10
2023-03-30T08:30:22.907Z,2.53
2023-03-30T08:32:49.123Z,2.40
2023-03-30T08:35:16.319Z,2.27
2023-03-30T08:37:42.573Z,1.97
2023-03-30T08:40:10.856Z,2.30
2023-03-30T08:42:45.767Z,2.67
2023-03-30T08:45:12.716Z,2.33
2023-03-30T08:47:40.983Z,2.43
2023-03-30T08:50:11.144Z,2.20
2023-03-30T08:52:37.690Z,2.20
2023-03-30T08:55:04.485Z,2.47
2023-03-30T08:57:37.811Z,2.63
2023-03-30T09:00:17.359Z,2.70
2023-03-30T09:02:46.103Z,2.60
2023-03-30T09:05:18.274Z,2.13
2023-03-30T09:07:49.899Z,2.30
2023-03-30T09:10:16.700Z,2.20
2023-03-30T09:12:45.433Z,2.40
2023-03-30T09:15:16.914Z,2.10
2023-03-30T09:17:45.579Z,1.93
2023-03-30T09:20:15.612Z,2.30
2023-03-30T09:22:43.194Z,2.20
2023-03-30T09:25:14.712Z,2.40
2023-03-30T09:27:54.809Z,2.10
2023-03-30T09:30:26.001Z,1.70
2023-03-30T09:32:59.312Z,1.10
2023-03-30T09:35:29.358Z,1.20
2023-03-30T09:37:55.637Z,1.37
2023-03-30T09:40:30.812Z,1.40
2023-03-30T09:43:04.895Z,1.40
2023-03-30T09:45:33.701Z,1.50
2023-03-30T09:48:04.639Z,2.53
2023-03-30T09:50:31.450Z,1.40
2023-03-30T09:53:00.373Z,1.63
2023-03-30T09:55:29.538Z,1.80
2023-03-30T09:58:10.756Z,1.40
2023-03-30T10:00:38.533Z,1.50
2023-03-30T10:03:06.615Z,1.60
2023-03-30T10:05:34.876Z,1.17
2023-03-30T10:08:03.040Z,1.53
2023-03-30T10:10:33.086Z,1.63
2023-03-30T10:13:04.096Z,1.43
2023-03-30T10:15:31.226Z,1.73
2023-03-30T10:18:01.586Z,1.70
2023-03-30T10:20:33.515Z,1.90
2023-03-30T10:23:02.299Z,1.40
2023-03-30T10:25:30.706Z,1.63
2023-03-30T10:28:02.040Z,1.70
2023-03-30T10:30:29.317Z,1.40
2023-03-30T10:32:57.552Z,1.80
2023-03-30T10:35:26.119Z,1.60
2023-03-30T10:37:54.548Z,1.77
2023-03-30T10:40:24.501Z,1.47
2023-03-30T10:42:54.979Z,1.70
2023-03-30T10:45:27.133Z,1.53
2023-03-30T10:48:03.432Z,1.50
2023-03-30T10:50:35.167Z,1.20
2023-03-30T10:53:12.397Z,1.60
2023-03-30T10:55:42.743Z,1.20
2023-03-30T10:58:18.656Z,1.67
2023-03-30T11:00:53.941Z,1.10
2023-03-30T11:03:24.208Z,1.40
2023-03-30T11:05:52.778Z,1.20
2023-03-30T11:08:21.321Z,1.20
2023-03-30T11:10:48.611Z,1.20
2023-03-30T11:13:18.733Z,1.60
2023-03-30T11:15:48.280Z,1.40
2023-03-30T11:18:18.079Z,1.40
2023-03-30T11:20:47.628Z,1.47
2023-03-30T11:23:19.327Z,1.33
2023-03-30T11:25:53.226Z,1.47
2023-03-30T11:28:35.526Z,1.63
2023-03-30T11:31:08.767Z,1.80
2023-03-30T11:33:36.614Z,1.60
2023-03-30T11:36:05.896Z,1.60
2023-03-30T11:38:40.652Z,1.40
2023-03-30T11:41:12.154Z,1.60
2023-03-30T11:43:38.402Z,1.57
2023-03-30T11:46:08.416Z,1.93
2023-03-30T11:49:00.065Z,2.03
2023-03-30T11:51:35.911Z,1.77
2023-03-30T11:54:23.237Z,2.00
2023-03-30T11:56:53.105Z,1.70
2023-03-30T11:59:25.258Z,1.70
2023-03-30T12:02:06.948Z,2.00
2023-03-30T12:04:38.835Z,2.07
2023-03-30T12:07:12.528Z,1.90
2023-03-30T12:09:44.121Z,1.83
2023-03-30T12:12:14.861Z,1.77
2023-03-30T12:15:00.760Z,1.73
2023-03-30T12:17:34.607Z,1.90
2023-03-30T12:20:06.578Z,1.40
2023-03-30T12:22:36.369Z,1.43
2023-03-30T12:25:12.003Z,1.40
2023-03-30T12:27:52.473Z,1.07
2023-03-30T12:30:26.046Z,0.90
2023-03-30T12:33:01.420Z,1.13
2023-03-30T12:35:51.055Z,1.10
2023-03-30T12:38:21.938Z,0.97
2023-03-30T12:40:54.275Z,1.10
2023-03-30T12:43:25.601Z,1.50
2023-03-30T12:46:01.365Z,1.20
2023-03-30T12:48:34.499Z,1.10
2023-03-30T12:51:07.756Z,1.33
2023-03-30T12:54:01.560Z,1.03
2023-03-30T12:56:34.398Z,1.00
2023-03-30T12:59:30.619Z,1.27
2023-03-30T13:02:04.268Z,1.17
2023-03-30T13:04:34.643Z,1.20
2023-03-30T13:07:02.789Z,1.00
2023-03-30T13:09:48.512Z,1.33
2023-03-30T13:12:31.281Z,0.90
2023-03-30T13:15:02.750Z,1.37
2023-03-30T13:17:48.023Z,1.40
2023-03-30T13:20:29.317Z,0.93
2023-03-30T13:23:31.912Z,1.30
2023-03-30T13:26:05.471Z,1.40
2023-03-30T13:28:36.838Z,1.27
2023-03-30T13:31:12.245Z,1.30
2023-03-30T13:33:40.182Z,1.20
2023-03-30T13:36:09.502Z,1.33
2023-03-30T13:38:58.266Z,2.00
2023-03-30T13:41:31.769Z,1.17
2023-03-30T13:44:18.560Z,1.60
2023-03-30T13:46:48.408Z,1.40
2023-03-30T13:49:26.837Z,1.60
2023-03-30T13:51:54.650Z,1.33
2023-03-30T13:54:24.980Z,1.67
2023-03-30T13:56:59.417Z,1.77
2023-03-30T13:59:29.455Z,1.67
2023-03-30T14:01:58.573Z,1.80
2023-03-30T14:04:28.820Z,1.87
2023-03-30T14:06:57.492Z,1.67
2023-03-30T14:09:25.224Z,1.97
2023-03-30T14:11:53.215Z,1.77
2023-03-30T14:14:23.018Z,1.80
2023-03-30T14:16:50.619Z,2.43
2023-03-30T14:19:21.632Z,2.10
2023-03-30T14:21:48.493Z,1.77
2023-03-30T14:24:16.984Z,1.83
2023-03-30T14:26:45.292Z,2.10
2023-03-30T14:29:28.301Z,1.80
2023-03-30T14:32:07.993Z,2.03
2023-03-30T14:34:35.889Z,1.63
2023-03-30T14:37:04.104Z,2.20
2023-03-30T14:39:32.419Z,2.63
2023-03-30T14:42:01.657Z,2.07
2023-03-30T14:44:27.831Z,2.10
2023-03-30T14:46:55.903Z,2.43
2023-03-30T14:49:24.950Z,2.33
2023-03-30T14:51:52.301Z,2.10
2023-03-30T14:54:20.991Z,1.77
2023-03-30T14:56:52.562Z,1.97
2023-03-30T14:59:19.215Z,1.67
2023-03-30T15:01:45.632Z,2.50
2023-03-30T15:04:14.650Z,1.90
2023-03-30T15:06:43.050Z,2.00
2023-03-30T15:09:14.864Z,2.00
2023-03-30T15:11:41.120Z,2.23
2023-03-30T15:14:09.009Z,2.37
2023-03-30T15:16:36.508Z,1.80
2023-03-30T15:19:04.876Z,1.90
2023-03-30T15:21:33.762Z,2.33
2023-03-30T15:24:00.908Z,2.83
2023-03-30T16:43:28.369Z,1.57
2023-03-30T16:45:54.642Z,1.70
2023-03-30T16:48:21.149Z,1.67
2023-03-30T16:50:50.325Z,1.70
2023-03-30T16:53:16.531Z,1.77
2023-03-30T16:55:42.759Z,1.70
2023-03-30T16:58:12.906Z,1.80
2023-03-30T17:00:42.119Z,1.87
2023-03-30T17:03:09.354Z,1.97
2023-03-30T17:05:35.970Z,1.80
2023-03-30T17:08:04.121Z,1.83
2023-03-30T17:10:32.957Z,1.70
2023-03-30T17:12:59.663Z,2.10
2023-03-30T17:15:26.413Z,2.00
2023-03-30T17:17:53.855Z,2.10
2023-03-30T17:20:26.160Z,1.90
2023-03-30T17:22:52.604Z,2.10
2023-03-30T17:25:20.127Z,2.23
2023-03-30T17:27:47.052Z,1.83
2023-03-30T17:30:18.065Z,1.60
2023-03-30T17:32:44.657Z,1.43
2023-03-30T17:35:11.514Z,2.27
2023-03-30T17:37:38.341Z,1.23
2023-03-30T17:40:15.136Z,2.23
2023-03-30T17:42:41.444Z,1.10
2023-03-30T17:45:08.561Z,1.30
2023-03-30T17:47:34.735Z,1.40
2023-03-30T17:50:00.980Z,1.30
2023-03-30T17:52:29.411Z,1.23
2023-03-30T17:54:56.084Z,1.50
2023-03-30T17:57:22.494Z,1.10
2023-03-30T17:59:48.778Z,1.30
2023-03-30T18:02:15.031Z,1.00
2023-03-30T18:04:41.370Z,1.40
2023-03-30T18:07:10.144Z,1.70
2023-03-30T18:09:36.996Z,2.47
2023-03-30T18:12:03.473Z,1.63
2023-03-30T18:14:29.659Z,1.47
2023-03-30T18:17:05.975Z,1.70
2023-03-30T18:19:32.847Z,1.80
2023-03-30T18:21:59.094Z,1.90
2023-03-30T18:24:25.218Z,2.10
2023-03-30T18:26:52.135Z,1.93
2023-03-30T18:29:19.428Z,1.93
2023-03-30T18:31:46.036Z,1.97
2023-03-30T18:34:12.402Z,2.03
2023-03-30T18:36:38.654Z,1.83
2023-03-30T18:39:04.851Z,1.70
2023-03-30T18:41:31.036Z,1.93
2023-03-30T18:43:59.029Z,2.13
2023-03-30T18:46:26.759Z,2.00
2023-03-30T18:48:52.919Z,2.00
2023-03-30T18:51:20.167Z,1.93
2023-03-30T18:53:46.291Z,1.80
2023-03-30T18:56:13.691Z,1.43
2023-03-30T18:58:41.809Z,1.90
2023-03-30T19:01:11.214Z,1.60
2023-03-30T19:03:37.648Z,1.70
2023-03-30T19:06:04.238Z,1.53
2023-03-30T19:08:30.799Z,2.00
2023-03-30T19:10:57.300Z,1.67
2023-03-30T19:13:25.003Z,2.13
2023-03-30T19:15:52.120Z,1.80
2023-03-30T19:18:19.298Z,1.73
2023-03-30T19:20:45.724Z,1.60
2023-03-30T19:23:13.568Z,1.80
2023-03-30T19:25:40.429Z,1.80
2023-03-30T19:28:07.541Z,1.60
2023-03-30T19:30:38.621Z,1.50
2023-03-30T19:33:08.034Z,1.73
2023-03-30T19:35:35.200Z,1.50
2023-03-30T19:38:01.646Z,1.47
2023-03-30T19:40:28.078Z,1.53
2023-03-30T19:42:54.321Z,1.83
2023-03-30T19:45:22.093Z,1.70
2023-03-30T19:47:48.293Z,1.50
2023-03-30T19:50:17.252Z,1.90
2023-03-30T19:52:46.335Z,1.30
2023-03-30T19:55:13.015Z,1.80
2023-03-30T19:57:39.317Z,1.70
2023-03-30T20:00:11.702Z,1.80
2023-03-30T20:02:38.141Z,1.53
2023-03-30T20:05:04.785Z,1.60
2023-03-30T20:07:31.125Z,1.70
2023-03-30T20:09:57.933Z,1.60
2023-03-30T20:12:24.127Z,1.80
2023-03-30T20:14:50.609Z,1.63
2023-03-30T20:17:16.829Z,1.40
2023-03-30T20:19:43.029Z,1.20
2023-03-30T20:22:09.208Z,1.50
2023-03-30T20:24:38.237Z,1.67
2023-03-30T20:27:05.507Z,1.80
2023-03-30T20:29:32.024Z,1.43
2023-03-30T20:31:58.408Z,1.27
2023-03-30T20:34:26.290Z,1.70
2023-03-30T20:36:52.622Z,1.13
2023-03-30T20:39:21.610Z,1.03
2023-03-30T20:41:53.117Z,1.13
2023-03-30T20:44:29.102Z,1.30
2023-03-30T20:46:57.227Z,1.60
2023-03-30T20:49:24.146Z,1.20
2023-03-30T20:51:50.442Z,1.07
2023-03-30T20:54:17.202Z,1.50
2023-03-30T20:56:43.825Z,1.10
2023-03-30T20:59:10.862Z,2.13
2023-03-30T21:01:39.962Z,1.13
2023-03-30T21:04:06.888Z,0.93
2023-03-30T21:06:33.783Z,1.50
2023-03-30T21:09:02.570Z,1.20
2023-03-30T21:11:30.930Z,1.20
2023-03-30T21:13:57.418Z,1.10
2023-03-30T21:16:24.418Z,1.00
2023-03-30T21:18:51.525Z,1.30
2023-03-30T21:21:17.758Z,1.10
2023-03-30T21:23:44.423Z,1.40
2023-03-30T21:26:11.565Z,1.10
2023-03-30T21:28:38.829Z,1.07
2023-03-30T21:31:07.026Z,1.20
2023-03-30T21:33:34.684Z,1.20
2023-03-30T21:36:01.918Z,1.67
2023-03-30T21:38:29.058Z,1.07
2023-03-30T21:40:57.192Z,1.30
2023-03-30T21:43:23.605Z,2.03
2023-03-30T21:45:53.682Z,1.00
2023-03-30T21:48:20.495Z,1.57
2023-03-30T21:50:47.307Z,1.47
2023-03-30T21:53:14.294Z,1.50
2023-03-30T21:55:40.610Z,2.37
2023-03-30T21:58:06.848Z,1.30
2023-03-30T22:00:33.044Z,1.70
2023-03-30T22:02:59.355Z,1.80
2023-03-30T22:05:26.266Z,1.30
2023-03-30T22:07:52.458Z,1.50
2023-03-30T22:10:19.530Z,1.50
2023-03-30T22:12:45.678Z,1.60
2023-03-30T22:15:14.070Z,1.60
2023-03-30T22:17:41.994Z,1.50
2023-03-30T22:20:10.654Z,1.47
2023-03-30T22:22:39.537Z,1.70
2023-03-30T22:25:06.223Z,1.70
2023-03-30T22:27:33.233Z,1.27
2023-03-30T22:30:00.378Z,1.43
2023-03-30T22:32:26.681Z,1.93
2023-03-30T22:34:53.038Z,1.50
2023-03-30T22:37:19.199Z,1.70
2023-03-30T22:39:45.556Z,1.70
2023-03-30T22:42:11.732Z,1.60
2023-03-30T22:44:38.574Z,1.60
2023-03-30T22:47:05.018Z,1.40
2023-03-30T22:49:31.182Z,1.60
2023-03-30T22:51:59.324Z,1.70
2023-03-30T22:54:25.529Z,1.70
2023-03-30T22:56:51.742Z,1.37
2023-03-30T22:59:17.932Z,1.43
2023-03-30T23:01:44.926Z,1.57
2023-03-30T23:04:11.595Z,1.40
2023-03-30T23:06:38.288Z,1.37
2023-03-30T23:09:05.878Z,1.27
2023-03-30T23:11:32.574Z,1.57
2023-03-30T23:14:04.186Z,1.60
2023-03-30T23:16:32.529Z,1.37
2023-03-30T23:19:00.482Z,1.53
2023-03-30T23:21:33.596Z,1.60
2023-03-30T23:24:01.463Z,1.53
2023-03-30T23:26:27.655Z,1.60
2023-03-30T23:28:53.832Z,1.60
2023-03-30T23:31:20.166Z,1.77
2023-03-30T23:33:46.476Z,1.40
2023-03-30T23:36:15.985Z,1.57
2023-03-30T23:38:42.411Z,1.57
2023-03-30T23:41:08.928Z,1.50
2023-03-30T23:43:35.111Z,1.40
2023-03-30T23:46:01.553Z,1.47
2023-03-30T23:48:27.881Z,1.63
2023-03-30T23:50:55.697Z,1.50
2023-03-30T23:53:24.241Z,1.40
2023-03-30T23:55:50.542Z,1.43
2023-03-30T23:58:17.443Z,1.50
